createdAt,value
2019-04-04T00:00:54.561Z,11.30
2019-04-04T00:03:23.092Z,11.30
2019-04-04T00:05:51.669Z,11.30
2019-04-04T00:08:20.132Z,11.30
2019-04-04T00:10:49.060Z,11.30
2019-04-04T00:13:17.679Z,11.30
2019-04-04T00:15:46.148Z,11.30
2019-04-04T00:18:14.684Z,11.20
2019-04-04T00:20:43.189Z,11.10
2019-04-04T00:23:11.737Z,11.10
2019-04-04T00:25:40.857Z,11.10
2019-04-04T00:28:09.545Z,11.00
2019-04-04T00:30:38.008Z,11.10
2019-04-04T00:33:06.477Z,11.00
2019-04-04T00:35:35.208Z,10.80
2019-04-04T00:38:06.724Z,10.80
2019-04-04T00:40:33.938Z,10.80
2019-04-04T00:43:02.569Z,10.70
2019-04-04T00:45:31.042Z,10.60
2019-04-04T00:48:01.103Z,10.60
2019-04-04T00:50:29.800Z,10.50
2019-04-04T00:52:58.341Z,10.40
2019-04-04T00:55:26.866Z,10.50
2019-04-04T00:57:55.363Z,10.40
2019-04-04T01:00:24.549Z,10.40
2019-04-04T01:02:53.257Z,10.40
2019-04-04T01:05:21.839Z,10.30
2019-04-04T01:07:50.383Z,10.30
2019-04-04T01:10:19.584Z,10.30
2019-04-04T01:12:48.164Z,10.30
2019-04-04T01:15:17.144Z,10.30
2019-04-04T01:17:45.604Z,10.30
2019-04-04T01:20:14.231Z,10.30
2019-04-04T01:22:42.696Z,10.30
2019-04-04T01:25:11.236Z,10.40
2019-04-04T01:27:39.747Z,10.50
2019-04-04T01:30:11.865Z,10.50
2019-04-04T01:32:39.592Z,10.50
2019-04-04T01:35:08.513Z,10.50
2019-04-04T01:37:37.071Z,10.50
2019-04-04T01:40:06.147Z,10.40
2019-04-04T01:42:37.790Z,10.40
2019-04-04T01:45:07.393Z,10.40
2019-04-04T01:47:35.867Z,10.40
2019-04-04T01:50:05.271Z,10.40
2019-04-04T01:52:33.815Z,10.40
2019-04-04T01:55:03.409Z,10.50
2019-04-04T01:57:32.657Z,10.60
2019-04-04T02:00:01.219Z,10.60
2019-04-04T02:02:29.752Z,10.60
2019-04-04T02:04:58.244Z,10.60
2019-04-04T02:07:27.856Z,10.70
2019-04-04T02:09:56.971Z,10.70
2019-04-04T02:12:25.538Z,10.70
2019-04-04T02:14:54.072Z,10.70
2019-04-04T02:17:22.806Z,10.80
2019-04-04T02:19:51.308Z,10.80
2019-04-04T02:22:19.848Z,10.80
2019-04-04T02:24:48.322Z,10.70
2019-04-04T02:27:16.822Z,10.60
2019-04-04T02:29:45.352Z,10.70
2019-04-04T02:32:18.466Z,10.70
2019-04-04T02:34:47.031Z,10.60
2019-04-04T02:37:15.579Z,10.60
2019-04-04T02:39:44.827Z,10.50
2019-04-04T02:42:13.415Z,10.50
2019-04-04T02:44:41.885Z,10.50
2019-04-04T02:47:10.423Z,10.60
2019-04-04T02:49:38.922Z,10.60
2019-04-04T02:52:07.485Z,10.60
2019-04-04T02:54:36.088Z,10.50
2019-04-04T02:57:08.175Z,10.50
2019-04-04T02:59:35.018Z,10.50
2019-04-04T03:02:05.910Z,10.50
2019-04-04T03:04:33.860Z,10.50
2019-04-04T03:07:02.393Z,10.50
2019-04-04T03:09:31.044Z,10.50
2019-04-04T03:11:59.746Z,10.30
2019-04-04T03:14:28.526Z,10.30
2019-04-04T03:16:57.896Z,10.40
2019-04-04T03:19:26.490Z,10.40
2019-04-04T03:21:56.040Z,10.30
2019-04-04T03:24:24.716Z,10.30
2019-04-04T03:26:53.666Z,10.40
2019-04-04T03:29:22.334Z,10.40
2019-04-04T03:31:50.887Z,10.30
2019-04-04T03:34:19.466Z,10.30
2019-04-04T03:36:47.997Z,10.30
2019-04-04T03:39:19.257Z,10.20
2019-04-04T03:41:47.121Z,10.20
2019-04-04T03:44:19.580Z,10.20
2019-04-04T03:46:45.857Z,10.20
2019-04-04T03:49:14.355Z,10.20
2019-04-04T03:51:42.896Z,10.10
2019-04-04T03:54:13.021Z,10.10
2019-04-04T03:56:41.638Z,10.10
2019-04-04T03:59:10.210Z,10.10
2019-04-04T04:01:38.738Z,10.20
2019-04-04T04:04:07.253Z,10.20
2019-04-04T04:06:35.784Z,10.10
2019-04-04T04:09:06.272Z,10.00
2019-04-04T04:11:37.388Z,10.10
2019-04-04T04:14:05.259Z,10.10
2019-04-04T04:16:35.897Z,10.00
2019-04-04T04:19:04.021Z,10.00
2019-04-04T04:21:32.564Z,9.90
2019-04-04T04:24:01.060Z,10.00
2019-04-04T04:26:29.597Z,10.00
2019-04-04T04:28:58.088Z,10.00
2019-04-04T04:31:26.616Z,10.10
2019-04-04T04:33:55.135Z,10.10
2019-04-04T04:36:23.737Z,10.00
2019-04-04T04:38:52.278Z,10.00
2019-04-04T04:41:21.343Z,10.00
2019-04-04T04:43:51.286Z,10.00
2019-04-04T04:46:19.043Z,10.00
2019-04-04T04:48:47.539Z,9.90
2019-04-04T04:51:16.004Z,10.00
2019-04-04T04:53:44.471Z,9.90
2019-04-04T04:56:13.040Z,9.90
2019-04-04T04:58:42.150Z,10.00
2019-04-04T05:01:11.234Z,9.90
2019-04-04T05:03:39.828Z,10.00
2019-04-04T05:06:08.307Z,10.10
2019-04-04T05:08:36.836Z,10.00
2019-04-04T05:11:05.339Z,10.10
2019-04-04T05:13:33.828Z,10.20
2019-04-04T05:16:05.193Z,10.30
2019-04-04T05:18:32.676Z,10.30
2019-04-04T05:21:01.960Z,10.40
2019-04-04T05:23:31.220Z,10.60
2019-04-04T05:26:02.524Z,10.70
2019-04-04T05:28:30.092Z,10.70
2019-04-04T05:30:58.574Z,10.80
2019-04-04T05:33:28.426Z,10.90
2019-04-04T05:35:57.611Z,11.10
2019-04-04T05:38:26.168Z,11.40
2019-04-04T05:40:55.310Z,11.40
2019-04-04T05:43:24.643Z,11.40
2019-04-04T05:45:53.459Z,11.40
2019-04-04T05:48:22.017Z,11.60
2019-04-04T05:50:50.488Z,11.70
2019-04-04T05:53:21.402Z,11.70
2019-04-04T05:55:49.269Z,11.70
2019-04-04T05:58:17.804Z,11.60
2019-04-04T06:00:47.041Z,11.70
2019-04-04T06:03:15.918Z,11.70
2019-04-04T06:05:44.722Z,11.70
2019-04-04T06:08:13.255Z,11.80
2019-04-04T06:10:41.858Z,11.90
2019-04-04T06:13:10.392Z,11.80
2019-04-04T06:15:38.882Z,11.70
2019-04-04T06:18:11.020Z,11.90
2019-04-04T06:20:37.707Z,11.80
2019-04-04T06:23:06.242Z,11.90
2019-04-04T06:25:35.870Z,12.00
2019-04-04T06:28:04.620Z,12.10
2019-04-04T06:30:43.179Z,12.10
2019-04-04T06:33:04.857Z,12.20
2019-04-04T06:35:34.224Z,12.10
2019-04-04T06:38:02.702Z,12.10
2019-04-04T06:40:31.340Z,12.20
2019-04-04T06:42:59.883Z,12.40
2019-04-04T06:45:29.794Z,12.50
2019-04-04T06:47:58.710Z,12.70
2019-04-04T06:50:27.187Z,12.80
2019-04-04T06:52:56.684Z,12.90
2019-04-04T06:55:28.455Z,12.90
2019-04-04T06:57:55.014Z,13.00
2019-04-04T07:00:23.553Z,13.20
2019-04-04T07:02:55.151Z,13.30
2019-04-04T07:05:22.311Z,13.30
2019-04-04T07:07:50.858Z,13.50
2019-04-04T07:10:21.833Z,13.70
2019-04-04T07:12:49.643Z,13.80
2019-04-04T07:15:18.246Z,13.80
2019-04-04T07:17:46.824Z,14.00
2019-04-04T07:20:17.160Z,14.20
2019-04-04T07:22:45.552Z,14.50
2019-04-04T07:25:14.225Z,14.50
2019-04-04T07:27:42.764Z,14.60
2019-04-04T07:30:15.267Z,14.70
2019-04-04T07:32:42.939Z,14.70
2019-04-04T07:35:11.875Z,14.70
2019-04-04T07:37:40.720Z,14.70
2019-04-04T07:40:09.568Z,14.60
2019-04-04T07:42:40.166Z,14.70
2019-04-04T07:45:08.864Z,14.50
2019-04-04T07:47:37.363Z,14.50
2019-04-04T07:50:06.229Z,14.70
2019-04-04T07:52:34.702Z,14.90
2019-04-04T07:55:03.529Z,14.90
2019-04-04T07:57:32.062Z,15.00
2019-04-04T08:00:00.669Z,15.00
2019-04-04T08:02:29.180Z,14.90
2019-04-04T08:04:57.724Z,15.10
2019-04-04T08:07:26.185Z,15.10
2019-04-04T08:09:54.684Z,15.20
2019-04-04T08:12:23.221Z,15.40
2019-04-04T08:14:51.697Z,15.60
2019-04-04T08:17:20.208Z,15.90
2019-04-04T08:19:59.170Z,16.10
2019-04-04T08:22:19.063Z,15.90
2019-04-04T08:24:47.609Z,16.00
2019-04-04T08:27:16.069Z,16.10
2019-04-04T08:29:44.613Z,16.30
2019-04-04T08:32:13.176Z,16.40
2019-04-04T08:34:41.723Z,16.60
2019-04-04T08:37:10.254Z,16.70
2019-04-04T08:39:38.826Z,16.70
2019-04-04T08:42:07.298Z,16.70
2019-04-04T08:44:35.824Z,16.80
2019-04-04T08:47:04.467Z,16.80
2019-04-04T08:49:33.008Z,16.90
2019-04-04T08:52:02.177Z,17.30
2019-04-04T08:54:30.673Z,17.30
2019-04-04T08:56:59.135Z,17.20
2019-04-04T08:59:27.608Z,17.40
2019-04-04T09:01:56.110Z,17.60
2019-04-04T09:04:24.666Z,17.90
2019-04-04T09:06:53.485Z,17.60
2019-04-04T09:09:22.087Z,17.50
2019-04-04T09:11:50.622Z,17.40
2019-04-04T09:14:19.160Z,17.60
2019-04-04T09:16:47.739Z,17.60
2019-04-04T09:19:16.273Z,17.50
2019-04-04T09:21:44.924Z,17.70
2019-04-04T09:24:13.523Z,17.70
2019-04-04T09:26:41.987Z,17.80
2019-04-04T09:29:10.561Z,17.60
2019-04-04T09:31:39.251Z,17.70
2019-04-04T09:34:09.341Z,17.90
2019-04-04T09:36:37.901Z,18.10
2019-04-04T09:39:07.109Z,18.00
2019-04-04T09:41:42.943Z,18.20
2019-04-04T09:44:11.464Z,18.50
2019-04-04T09:46:40.104Z,18.80
2019-04-04T09:49:08.656Z,18.90
2019-04-04T09:51:37.205Z,19.20
2019-04-04T09:54:06.329Z,18.90
2019-04-04T09:56:34.811Z,19.00
2019-04-04T09:59:03.279Z,18.70
2019-04-04T10:01:31.861Z,18.90
2019-04-04T10:04:00.468Z,18.70
2019-04-04T10:06:29.011Z,19.00
2019-04-04T10:08:57.507Z,19.20
2019-04-04T10:11:25.990Z,18.90
2019-04-04T10:13:54.529Z,18.90
2019-04-04T10:16:23.030Z,19.00
2019-04-04T10:18:51.557Z,19.20
2019-04-04T10:21:20.117Z,19.60
2019-04-04T10:23:48.676Z,19.40
2019-04-04T10:26:17.232Z,19.60
2019-04-04T10:28:45.744Z,19.40
2019-04-04T10:31:14.381Z,19.40
2019-04-04T10:33:42.869Z,19.60
2019-04-04T10:36:11.384Z,19.80
2019-04-04T10:38:39.951Z,20.20
2019-04-04T10:41:08.663Z,20.20
2019-04-04T10:43:37.198Z,20.20
2019-04-04T10:46:05.783Z,20.10
2019-04-04T10:48:34.340Z,20.10
2019-04-04T10:51:02.945Z,19.70
2019-04-04T10:53:31.525Z,19.60
2019-04-04T10:56:00.281Z,19.40
2019-04-04T10:58:28.760Z,19.60
2019-04-04T11:00:57.342Z,20.30
2019-04-04T11:03:25.805Z,20.40
2019-04-04T11:05:54.348Z,20.00
2019-04-04T11:08:22.929Z,19.70
2019-04-04T11:10:51.460Z,19.80
2019-04-04T11:13:32.455Z,20.10
2019-04-04T11:15:50.198Z,20.30
2019-04-04T11:18:18.746Z,19.80
2019-04-04T11:20:47.212Z,19.60
2019-04-04T11:23:15.789Z,20.00
2019-04-04T11:25:44.248Z,19.90
2019-04-04T11:28:12.712Z,20.00
2019-04-04T11:30:41.208Z,20.00
2019-04-04T11:33:09.746Z,20.40
2019-04-04T11:35:38.281Z,20.10
2019-04-04T11:38:06.840Z,19.90
2019-04-04T11:40:35.316Z,19.90
2019-04-04T11:43:03.925Z,20.00
2019-04-04T11:45:32.428Z,20.10
2019-04-04T11:48:00.993Z,20.00
2019-04-04T11:50:29.627Z,20.30
2019-04-04T11:52:58.201Z,20.00
2019-04-04T11:55:26.664Z,20.20
2019-04-04T11:57:55.199Z,20.40
2019-04-04T12:00:25.473Z,20.40
2019-04-04T12:02:53.957Z,20.70
2019-04-04T12:05:22.454Z,21.00
2019-04-04T12:07:51.027Z,21.10
2019-04-04T12:10:19.631Z,21.40
2019-04-04T12:12:48.095Z,21.00
2019-04-04T12:15:16.975Z,20.60
2019-04-04T12:17:45.510Z,21.00
2019-04-04T12:20:17.344Z,20.70
2019-04-04T12:22:46.065Z,20.80
2019-04-04T12:25:14.598Z,21.40
2019-04-04T12:27:43.057Z,21.50
2019-04-04T12:30:13.113Z,22.00
2019-04-04T12:32:41.575Z,22.90
2019-04-04T12:35:10.588Z,22.20
2019-04-04T12:37:39.155Z,22.30
2019-04-04T12:40:19.702Z,21.00
2019-04-04T12:42:39.393Z,20.30
2019-04-04T12:45:09.125Z,20.20
2019-04-04T12:47:38.137Z,19.70
2019-04-04T12:50:07.605Z,19.60
2019-04-04T12:52:36.889Z,19.30
2019-04-04T12:55:06.070Z,19.10
2019-04-04T12:57:34.544Z,19.60
2019-04-04T13:00:04.000Z,20.70
2019-04-04T13:02:32.532Z,21.90
2019-04-04T13:05:01.004Z,22.40
2019-04-04T13:07:29.655Z,21.70
2019-04-04T13:10:10.704Z,21.60
2019-04-04T13:12:28.730Z,21.80
2019-04-04T13:14:57.242Z,20.90
2019-04-04T13:17:25.830Z,20.70
2019-04-04T13:19:54.304Z,20.10
2019-04-04T13:22:22.802Z,19.50
2019-04-04T13:24:51.332Z,19.00
2019-04-04T13:27:19.864Z,19.10
2019-04-04T13:29:48.432Z,18.90
2019-04-04T13:32:17.025Z,18.80
2019-04-04T13:34:58.397Z,18.80
2019-04-04T13:37:15.952Z,18.80
2019-04-04T13:39:44.546Z,18.80
2019-04-04T13:42:13.039Z,18.80
2019-04-04T13:44:41.580Z,18.80
2019-04-04T13:47:10.040Z,18.60
2019-04-04T13:49:38.505Z,18.60
2019-04-04T13:52:07.280Z,18.60
2019-04-04T13:54:38.416Z,18.60
2019-04-04T13:57:06.972Z,18.50
2019-04-04T13:59:35.462Z,18.40
2019-04-04T14:02:04.416Z,18.30
2019-04-04T14:04:32.956Z,18.30
2019-04-04T14:07:02.637Z,18.40
2019-04-04T14:09:31.726Z,18.60
2019-04-04T14:12:00.262Z,18.60
2019-04-04T14:14:28.826Z,18.50
2019-04-04T14:16:57.429Z,18.40
2019-04-04T14:19:31.461Z,18.50
2019-04-04T14:21:59.401Z,18.40
2019-04-04T14:24:27.863Z,18.40
2019-04-04T14:26:56.402Z,18.40
2019-04-04T14:29:27.850Z,18.40
2019-04-04T14:31:55.200Z,18.30
2019-04-04T14:34:23.666Z,18.30
2019-04-04T14:36:52.174Z,18.40
2019-04-04T14:39:20.703Z,18.60
2019-04-04T14:41:49.303Z,18.60
2019-04-04T14:44:17.806Z,18.60
2019-04-04T14:46:46.412Z,18.50
2019-04-04T14:49:15.155Z,18.60
2019-04-04T14:51:43.883Z,18.60
2019-04-04T14:54:12.517Z,18.60
2019-04-04T14:56:41.162Z,18.60
2019-04-04T14:59:09.688Z,18.80
2019-04-04T15:01:38.148Z,18.80
2019-04-04T15:04:06.977Z,18.60
2019-04-04T15:06:35.476Z,18.60
2019-04-04T15:09:05.488Z,18.50
2019-04-04T15:11:34.029Z,18.60
2019-04-04T15:14:02.618Z,18.80
2019-04-04T15:16:31.099Z,18.90
2019-04-04T15:18:59.632Z,19.10
2019-04-04T15:21:28.148Z,19.90
2019-04-04T15:23:56.617Z,20.20
2019-04-04T15:26:25.158Z,20.60
2019-04-04T15:28:53.823Z,20.30
2019-04-04T15:31:22.287Z,19.90
2019-04-04T15:33:50.754Z,19.70
2019-04-04T15:36:19.330Z,19.30
2019-04-04T15:38:47.859Z,19.10
2019-04-04T15:41:16.473Z,19.10
2019-04-04T15:43:44.967Z,19.60
2019-04-04T15:46:13.433Z,20.30
2019-04-04T15:48:41.896Z,20.20
2019-04-04T15:51:10.485Z,20.60
2019-04-04T15:53:39.030Z,20.50
2019-04-04T15:56:07.667Z,20.20
2019-04-04T15:58:36.217Z,19.80
2019-04-04T16:01:04.831Z,19.90
2019-04-04T16:03:33.359Z,20.00
2019-04-04T16:06:02.236Z,20.10
2019-04-04T16:08:30.787Z,19.90
2019-04-04T16:10:59.852Z,19.90
2019-04-04T16:13:28.703Z,19.60
2019-04-04T16:15:57.210Z,19.40
2019-04-04T16:18:25.688Z,19.30
2019-04-04T16:20:54.206Z,19.10
2019-04-04T16:23:22.740Z,18.90
2019-04-04T16:25:51.216Z,19.00
2019-04-04T16:28:19.717Z,19.10
2019-04-04T16:30:48.285Z,19.10
2019-04-04T16:33:16.751Z,19.00
2019-04-04T16:35:45.255Z,18.80
2019-04-04T16:38:13.717Z,18.60
2019-04-04T16:40:42.193Z,18.40
2019-04-04T16:43:10.724Z,18.40
2019-04-04T16:45:39.282Z,18.40
2019-04-04T16:48:07.891Z,18.40
2019-04-04T16:50:38.034Z,18.30
2019-04-04T16:53:06.524Z,18.10
2019-04-04T16:55:35.252Z,18.00
2019-04-04T16:58:03.832Z,17.90
2019-04-04T17:00:32.445Z,17.70
2019-04-04T17:03:01.011Z,17.60
2019-04-04T17:05:29.584Z,17.50
2019-04-04T17:07:58.285Z,17.40
2019-04-04T17:10:28.060Z,17.40
2019-04-04T17:12:56.962Z,17.30
2019-04-04T17:15:25.492Z,17.20
2019-04-04T17:17:54.028Z,17.10
2019-04-04T17:20:22.600Z,17.00
2019-04-04T17:22:52.874Z,16.90
2019-04-04T17:25:21.428Z,16.80
2019-04-04T17:27:50.076Z,16.70
2019-04-04T17:30:18.780Z,16.70
2019-04-04T17:32:48.881Z,16.60
2019-04-04T17:35:17.876Z,16.60
2019-04-04T17:37:46.912Z,16.50
2019-04-04T17:40:16.419Z,16.40
2019-04-04T17:42:44.255Z,16.40
2019-04-04T17:45:13.092Z,16.30
2019-04-04T17:47:41.994Z,16.20
2019-04-04T17:50:13.270Z,16.20
2019-04-04T17:52:41.826Z,16.30
2019-04-04T17:55:10.801Z,16.30
2019-04-04T17:57:39.754Z,16.20
2019-04-04T18:00:10.190Z,16.10
2019-04-04T18:02:38.788Z,16.00
2019-04-04T18:05:11.045Z,16.00
2019-04-04T18:07:39.521Z,16.00
2019-04-04T18:10:08.537Z,15.90
2019-04-04T18:12:40.363Z,15.90
2019-04-04T18:15:10.778Z,15.80
2019-04-04T18:17:39.389Z,15.80
2019-04-04T18:20:08.639Z,15.70
2019-04-04T18:22:37.458Z,15.70
2019-04-04T18:25:07.582Z,15.70
2019-04-04T18:27:36.275Z,15.60
2019-04-04T18:30:12.265Z,15.60
2019-04-04T18:32:40.776Z,15.50
2019-04-04T18:35:09.558Z,15.50
2019-04-04T18:37:38.340Z,15.50
2019-04-04T18:40:09.296Z,15.60
2019-04-04T18:42:37.905Z,15.60
2019-04-04T18:45:09.957Z,15.50
2019-04-04T18:47:38.796Z,15.50
2019-04-04T18:50:07.566Z,15.60
2019-04-04T18:52:36.111Z,15.50
2019-04-04T18:55:18.682Z,15.50
2019-04-04T18:57:36.919Z,15.40
2019-04-04T19:00:08.463Z,15.40
2019-04-04T19:02:37.146Z,15.50
2019-04-04T19:05:07.666Z,15.50
2019-04-04T19:07:39.726Z,15.50
2019-04-04T19:10:11.669Z,15.50
2019-04-04T19:12:40.586Z,15.50
2019-04-04T19:15:09.659Z,15.50
2019-04-04T19:17:38.240Z,15.40
2019-04-04T19:20:10.161Z,15.40
2019-04-04T19:22:39.247Z,15.50
2019-04-04T19:25:08.365Z,15.40
2019-04-04T19:27:37.132Z,15.40
2019-04-04T19:30:08.124Z,15.30
2019-04-04T19:32:36.754Z,15.30
2019-04-04T19:35:07.297Z,15.30
2019-04-04T19:37:35.965Z,15.30
2019-04-04T19:40:06.937Z,15.30
2019-04-04T19:42:35.520Z,15.30
2019-04-04T19:45:09.109Z,15.20
2019-04-04T19:47:37.716Z,15.30
2019-04-04T19:50:10.961Z,15.20
2019-04-04T19:52:39.576Z,15.20
2019-04-04T19:55:08.350Z,15.20
2019-04-04T19:57:36.965Z,15.10
2019-04-04T20:00:11.002Z,15.20
2019-04-04T20:02:39.544Z,15.20
2019-04-04T20:05:09.031Z,15.10
2019-04-04T20:07:37.552Z,15.10
2019-04-04T20:10:07.369Z,15.20
2019-04-04T20:12:35.945Z,15.20
2019-04-04T20:15:06.847Z,15.10
2019-04-04T20:17:35.383Z,15.10
2019-04-04T20:20:07.276Z,15.10
2019-04-04T20:22:35.857Z,15.00
2019-04-04T20:25:06.441Z,15.00
2019-04-04T20:27:34.965Z,15.00
2019-04-04T20:30:07.764Z,15.00
2019-04-04T20:32:36.258Z,14.90
2019-04-04T20:35:07.310Z,14.90
2019-04-04T20:37:35.896Z,15.00
2019-04-04T20:40:05.673Z,14.90
2019-04-04T20:42:34.216Z,14.80
2019-04-04T20:45:02.787Z,14.80
2019-04-04T20:47:33.686Z,14.90
2019-04-04T20:50:01.593Z,14.80
2019-04-04T20:52:30.103Z,14.80
2019-04-04T20:54:58.569Z,14.80
2019-04-04T20:57:27.117Z,14.70
2019-04-04T20:59:55.628Z,14.80
2019-04-04T21:02:24.093Z,14.70
2019-04-04T21:04:54.451Z,14.70
2019-04-04T21:07:22.924Z,14.70
2019-04-04T21:09:51.455Z,14.60
2019-04-04T21:12:19.928Z,14.70
2019-04-04T21:14:48.436Z,14.70
2019-04-04T21:17:16.971Z,14.70
2019-04-04T21:19:45.442Z,14.60
2019-04-04T21:22:26.561Z,14.60
2019-04-04T21:24:44.118Z,14.70
2019-04-04T21:27:12.576Z,14.70
2019-04-04T21:29:41.064Z,14.70
2019-04-04T21:32:09.599Z,14.60
2019-04-04T21:34:38.132Z,14.60
2019-04-04T21:37:06.708Z,14.50
2019-04-04T21:39:35.240Z,14.50
2019-04-04T21:42:03.793Z,14.60
2019-04-04T21:44:32.293Z,14.60
2019-04-04T21:47:00.753Z,14.40
2019-04-04T21:49:29.225Z,14.40
2019-04-04T21:51:57.793Z,14.40
2019-04-04T21:54:26.261Z,14.40
2019-04-04T21:56:54.800Z,14.40
2019-04-04T21:59:23.376Z,14.30
2019-04-04T22:01:51.977Z,14.20
2019-04-04T22:04:20.528Z,14.20
2019-04-04T22:06:49.064Z,14.10
2019-04-04T22:09:18.732Z,14.10
2019-04-04T22:11:46.403Z,14.10
2019-04-04T22:14:21.541Z,14.10
2019-04-04T22:16:45.097Z,13.80
2019-04-04T22:19:13.923Z,13.80
2019-04-04T22:21:42.500Z,13.60
2019-04-04T22:24:10.966Z,13.60
2019-04-04T22:26:39.508Z,13.60
2019-04-04T22:29:08.091Z,13.50
2019-04-04T22:31:36.635Z,13.40
2019-04-04T22:34:05.105Z,13.40
2019-04-04T22:36:33.684Z,13.40
2019-04-04T22:39:02.153Z,13.30
2019-04-04T22:41:32.841Z,13.20
2019-04-04T22:44:03.540Z,13.20
2019-04-04T22:46:31.073Z,13.20
2019-04-04T22:48:59.532Z,13.20
2019-04-04T22:51:28.045Z,13.20
2019-04-04T22:53:56.512Z,13.20
2019-04-04T22:56:24.987Z,13.20
2019-04-04T22:58:53.566Z,13.10
2019-04-04T23:01:22.104Z,13.10
2019-04-04T23:03:50.733Z,13.10
2019-04-04T23:06:19.234Z,13.00
2019-04-04T23:08:47.804Z,13.00
2019-04-04T23:11:16.264Z,13.00
2019-04-04T23:13:44.766Z,13.00
2019-04-04T23:16:13.228Z,13.00
2019-04-04T23:18:41.781Z,12.90
2019-04-04T23:21:10.489Z,12.90
2019-04-04T23:23:39.101Z,13.00
2019-04-04T23:26:07.704Z,12.90
2019-04-04T23:28:36.279Z,12.90
2019-04-04T23:31:04.825Z,12.70
2019-04-04T23:33:33.360Z,12.70
2019-04-04T23:36:01.949Z,12.60
2019-04-04T23:38:30.488Z,12.60
2019-04-04T23:40:58.944Z,12.50
2019-04-04T23:43:27.446Z,12.50
2019-04-04T23:45:56.057Z,12.60
2019-04-04T23:48:24.523Z,12.50
2019-04-04T23:50:53.033Z,12.50
2019-04-04T23:53:21.575Z,12.50
2019-04-04T23:55:50.048Z,12.50
2019-04-04T23:58:18.625Z,12.50
